createdAt,value
2019-01-31T00:00:47.060Z,2.53
2019-01-31T00:05:49.090Z,1.77
2019-01-31T00:11:21.441Z,2.47
2019-01-31T00:16:59.128Z,1.73
2019-01-31T00:22:17.344Z,2.03
2019-01-31T00:27:37.617Z,1.80
2019-01-31T00:32:48.452Z,2.00
2019-01-31T00:38:19.304Z,1.83
2019-01-31T00:43:48.714Z,1.90
2019-01-31T00:49:08.949Z,1.90
2019-01-31T00:54:16.644Z,1.60
2019-01-31T00:59:31.945Z,1.40
2019-01-31T01:04:45.998Z,1.77
2019-01-31T01:09:48.117Z,2.00
2019-01-31T01:14:58.844Z,1.40
2019-01-31T01:20:27.291Z,1.40
2019-01-31T01:25:56.306Z,1.20
2019-01-31T01:31:31.440Z,1.23
2019-01-31T01:37:00.662Z,1.20
2019-01-31T01:42:02.305Z,1.47
2019-01-31T01:47:07.209Z,1.40
2019-01-31T01:52:22.652Z,1.40
2019-01-31T01:57:42.734Z,1.33
2019-01-31T02:02:41.887Z,1.77
2019-01-31T02:07:55.990Z,1.80
2019-01-31T02:13:11.657Z,1.67
2019-01-31T02:18:16.393Z,1.73
2019-01-31T02:23:24.537Z,1.87
2019-01-31T02:28:38.142Z,2.30
2019-01-31T02:34:10.495Z,2.00
2019-01-31T02:39:15.080Z,1.43
2019-01-31T02:44:44.147Z,2.20
2019-01-31T02:50:15.188Z,2.10
2019-01-31T02:55:29.141Z,2.13
2019-01-31T03:00:43.149Z,2.10
2019-01-31T03:05:57.476Z,2.30
2019-01-31T03:11:33.190Z,2.40
2019-01-31T03:16:47.166Z,2.57
2019-01-31T03:22:21.084Z,3.03
2019-01-31T03:28:02.324Z,2.40
2019-01-31T03:33:15.593Z,2.10
2019-01-31T03:38:25.775Z,2.00
2019-01-31T03:43:30.463Z,2.17
2019-01-31T03:48:44.249Z,1.90
2019-01-31T03:53:57.884Z,2.20
2019-01-31T03:59:09.202Z,2.27
2019-01-31T04:04:23.156Z,2.57
2019-01-31T04:09:17.731Z,3.07
2019-01-31T04:14:12.410Z,3.43
2019-01-31T04:19:07.005Z,3.37
2019-01-31T04:24:01.576Z,3.60
2019-01-31T04:28:56.174Z,3.30
2019-01-31T04:33:50.780Z,3.50
2019-01-31T04:38:45.361Z,3.53
2019-01-31T04:43:39.967Z,3.53
2019-01-31T04:48:34.591Z,3.30
2019-01-31T04:53:29.156Z,3.70
2019-01-31T04:58:23.766Z,3.50
2019-01-31T05:03:18.351Z,3.30
2019-01-31T05:08:12.950Z,3.57
2019-01-31T05:13:07.540Z,3.13
2019-01-31T05:18:02.125Z,3.27
2019-01-31T05:22:56.726Z,3.70
2019-01-31T05:27:51.308Z,2.93
2019-01-31T05:32:46.323Z,3.27
2019-01-31T05:37:40.911Z,3.37
2019-01-31T05:42:35.512Z,3.30
2019-01-31T05:47:30.100Z,3.23
2019-01-31T05:52:24.752Z,3.20
2019-01-31T05:57:19.344Z,3.23
2019-01-31T06:02:13.939Z,3.47
2019-01-31T06:07:11.105Z,3.60
2019-01-31T06:12:04.871Z,3.93
2019-01-31T06:16:59.452Z,3.60
2019-01-31T06:21:54.060Z,3.47
2019-01-31T06:26:48.648Z,3.90
2019-01-31T06:31:43.245Z,3.87
2019-01-31T06:36:37.832Z,3.70
2019-01-31T06:41:32.413Z,4.10
2019-01-31T06:46:27.002Z,3.43
2019-01-31T06:51:21.600Z,3.33
2019-01-31T06:56:16.186Z,3.47
2019-01-31T07:01:16.709Z,3.60
2019-01-31T07:06:11.604Z,3.77
2019-01-31T07:11:07.141Z,3.10
2019-01-31T07:16:01.786Z,3.07
2019-01-31T07:20:56.467Z,3.10
2019-01-31T07:25:51.535Z,2.70
2019-01-31T07:30:47.260Z,2.83
2019-01-31T07:35:41.906Z,2.80
2019-01-31T07:40:37.954Z,3.10
2019-01-31T07:45:35.546Z,2.70
2019-01-31T07:50:31.490Z,3.27
2019-01-31T07:55:27.631Z,2.70
2019-01-31T08:00:34.327Z,3.00
2019-01-31T08:05:30.308Z,5.43
2019-01-31T08:10:29.707Z,2.90
2019-01-31T08:15:24.369Z,3.43
2019-01-31T08:20:20.888Z,2.77
2019-01-31T08:25:24.920Z,2.50
2019-01-31T08:30:37.855Z,3.17
2019-01-31T08:35:33.351Z,3.03
2019-01-31T08:40:27.968Z,3.10
2019-01-31T08:45:23.931Z,3.63
2019-01-31T08:50:22.084Z,3.33
2019-01-31T08:55:16.937Z,3.53
2019-01-31T09:00:29.509Z,3.60
2019-01-31T09:05:24.153Z,2.80
2019-01-31T09:10:25.834Z,2.80
2019-01-31T09:15:24.329Z,1.80
2019-01-31T09:20:38.457Z,1.70
2019-01-31T09:25:56.163Z,1.80
2019-01-31T09:31:16.035Z,2.07
2019-01-31T09:36:49.956Z,1.90
2019-01-31T09:41:51.550Z,1.97
2019-01-31T09:46:56.874Z,1.83
2019-01-31T09:52:01.820Z,1.97
2019-01-31T09:57:21.979Z,1.90
2019-01-31T10:02:48.607Z,2.00
2019-01-31T10:08:09.972Z,1.90
2019-01-31T10:13:39.212Z,1.70
2019-01-31T10:19:02.344Z,1.77
2019-01-31T10:24:22.397Z,1.60
2019-01-31T10:29:39.539Z,1.70
2019-01-31T10:34:50.635Z,1.80
2019-01-31T10:40:04.803Z,2.00
2019-01-31T10:45:44.021Z,2.00
2019-01-31T10:51:02.381Z,2.17
2019-01-31T10:56:37.533Z,2.03
2019-01-31T11:02:13.964Z,2.30
2019-01-31T11:07:33.938Z,2.73
2019-01-31T11:13:00.718Z,2.30
2019-01-31T11:17:57.858Z,1.90
2019-01-31T11:23:05.854Z,2.10
2019-01-31T11:28:27.517Z,2.40
2019-01-31T11:33:54.847Z,1.97
2019-01-31T11:39:32.991Z,2.10
2019-01-31T11:44:51.379Z,2.30
2019-01-31T11:50:01.983Z,2.00
2019-01-31T11:55:13.288Z,1.90
2019-01-31T12:00:15.485Z,2.00
2019-01-31T12:05:11.250Z,1.73
2019-01-31T12:10:10.075Z,2.00
2019-01-31T12:15:08.282Z,1.73
2019-01-31T12:20:02.876Z,2.03
2019-01-31T12:24:57.664Z,2.00
2019-01-31T12:29:52.395Z,1.60
2019-01-31T12:34:47.553Z,1.57
2019-01-31T12:39:42.200Z,1.57
2019-01-31T12:44:36.918Z,1.63
2019-01-31T12:49:31.494Z,1.90
2019-01-31T12:54:26.501Z,1.93
2019-01-31T12:59:21.313Z,3.07
2019-01-31T13:04:16.259Z,1.70
2019-01-31T13:09:11.721Z,1.90
2019-01-31T13:14:10.761Z,1.80
2019-01-31T13:19:06.001Z,2.23
2019-01-31T13:24:01.054Z,1.63
2019-01-31T13:28:58.108Z,2.50
2019-01-31T13:33:52.849Z,1.70
2019-01-31T13:38:51.631Z,2.20
2019-01-31T13:43:57.253Z,1.90
2019-01-31T13:48:47.374Z,2.00
2019-01-31T13:53:45.689Z,1.83
2019-01-31T13:58:43.685Z,2.20
2019-01-31T14:03:43.201Z,2.90
2019-01-31T14:08:38.679Z,2.00
2019-01-31T14:13:33.712Z,2.00
2019-01-31T14:18:28.723Z,2.07
2019-01-31T14:23:23.779Z,1.77
2019-01-31T14:28:18.872Z,1.90
2019-01-31T14:33:15.487Z,1.90
2019-01-31T14:38:10.583Z,1.93
2019-01-31T14:43:05.963Z,2.00
2019-01-31T14:48:00.973Z,2.07
2019-01-31T14:52:57.061Z,1.90
2019-01-31T14:57:52.151Z,2.30
2019-01-31T15:02:47.219Z,2.60
2019-01-31T15:07:45.842Z,2.27
2019-01-31T15:12:41.149Z,2.73
2019-01-31T15:17:36.200Z,3.00
2019-01-31T15:22:31.290Z,3.00
2019-01-31T15:27:26.349Z,2.93
2019-01-31T15:32:21.830Z,3.10
2019-01-31T15:37:16.933Z,2.83
2019-01-31T15:42:11.511Z,2.90
2019-01-31T15:47:08.239Z,2.90
2019-01-31T15:52:02.893Z,2.90
2019-01-31T15:56:57.467Z,2.27
2019-01-31T16:01:52.717Z,2.50
2019-01-31T16:06:47.833Z,3.20
2019-01-31T16:11:43.076Z,3.00
2019-01-31T16:16:38.022Z,2.93
2019-01-31T16:21:33.039Z,3.20
2019-01-31T16:26:28.032Z,3.77
2019-01-31T16:31:23.018Z,3.70
2019-01-31T16:36:17.717Z,3.63
2019-01-31T16:41:12.326Z,4.27
2019-01-31T16:46:07.028Z,4.20
2019-01-31T16:51:01.624Z,4.87
2019-01-31T16:55:56.192Z,4.60
2019-01-31T17:00:50.796Z,4.83
2019-01-31T17:05:45.530Z,5.17
2019-01-31T17:10:40.099Z,5.37
2019-01-31T17:15:34.847Z,5.77
2019-01-31T17:20:42.359Z,4.97
2019-01-31T17:25:37.107Z,4.80
2019-01-31T17:30:31.932Z,4.83
2019-01-31T17:35:26.569Z,5.00
2019-01-31T17:40:34.394Z,5.13
2019-01-31T17:45:30.808Z,4.47
2019-01-31T17:50:25.796Z,4.23
2019-01-31T17:55:26.529Z,4.13
2019-01-31T18:00:39.134Z,3.83
2019-01-31T18:05:33.821Z,4.50
2019-01-31T18:10:28.414Z,4.00
2019-01-31T18:15:23.091Z,3.57
2019-01-31T18:20:23.179Z,5.10
2019-01-31T18:25:17.791Z,3.77
2019-01-31T18:30:19.793Z,3.80
2019-01-31T18:35:14.533Z,4.30
2019-01-31T18:40:19.635Z,3.70
2019-01-31T18:45:18.661Z,3.83
2019-01-31T18:50:20.367Z,3.83
2019-01-31T18:55:15.102Z,3.40
2019-01-31T19:00:29.015Z,2.93
2019-01-31T19:05:24.403Z,3.00
2019-01-31T19:10:19.088Z,3.47
2019-01-31T19:15:23.084Z,4.80
2019-01-31T19:20:21.804Z,5.07
2019-01-31T19:25:16.809Z,5.97
2019-01-31T19:30:24.356Z,6.30
2019-01-31T19:35:18.998Z,4.83
2019-01-31T19:40:20.836Z,4.70
2019-01-31T19:45:22.767Z,4.53
2019-01-31T19:50:17.709Z,5.00
2019-01-31T19:55:12.396Z,5.03
2019-01-31T20:00:16.255Z,4.77
2019-01-31T20:05:11.031Z,4.43
2019-01-31T20:10:10.596Z,4.43
2019-01-31T20:15:11.956Z,4.23
2019-01-31T20:20:14.914Z,4.27
2019-01-31T20:25:13.025Z,3.30
2019-01-31T20:30:12.301Z,3.40
2019-01-31T20:35:11.855Z,3.60
2019-01-31T20:40:11.036Z,4.87
2019-01-31T20:45:10.302Z,5.83
2019-01-31T20:50:08.812Z,5.60
2019-01-31T20:55:03.513Z,4.40
2019-01-31T20:59:59.345Z,6.30
2019-01-31T21:04:54.028Z,5.50
2019-01-31T21:09:48.614Z,5.63
2019-01-31T21:14:43.208Z,7.20
2019-01-31T21:19:37.789Z,7.20
2019-01-31T21:24:32.398Z,7.70
2019-01-31T21:29:26.984Z,7.50
2019-01-31T21:34:21.574Z,6.97
2019-01-31T21:39:16.134Z,7.90
2019-01-31T21:44:10.792Z,8.67
2019-01-31T21:49:05.541Z,6.77
2019-01-31T21:54:00.154Z,7.30
2019-01-31T21:58:54.919Z,7.17
2019-01-31T22:03:49.551Z,6.60
2019-01-31T22:08:44.198Z,7.00
2019-01-31T22:13:38.795Z,7.00
2019-01-31T22:18:33.414Z,6.67
2019-01-31T22:23:28.040Z,6.40
2019-01-31T22:28:22.642Z,6.30
2019-01-31T22:33:17.239Z,6.50
2019-01-31T22:38:11.895Z,5.93
2019-01-31T22:43:06.797Z,5.57
2019-01-31T22:48:01.474Z,6.23
2019-01-31T22:52:56.054Z,6.10
2019-01-31T22:57:50.651Z,6.00
2019-01-31T23:02:45.450Z,5.90
2019-01-31T23:07:40.040Z,6.07
2019-01-31T23:12:34.641Z,6.00
2019-01-31T23:17:37.046Z,5.20
2019-01-31T23:22:25.617Z,6.00
2019-01-31T23:27:20.268Z,5.83
2019-01-31T23:32:14.962Z,5.87
2019-01-31T23:37:09.545Z,5.30
2019-01-31T23:42:04.287Z,5.50
2019-01-31T23:46:58.886Z,5.47
2019-01-31T23:51:53.481Z,5.90
2019-01-31T23:56:48.067Z,7.27
